sensor_id;sensor_type;location;lat;lon;timestamp;temperature;humidity
19403;DHT22;9837;48.888;8.998;2022-08-14T05:07:55;24.20;41.60
19403;DHT22;9837;48.888;8.998;2022-08-14T05:10:20;24.40;41.10
19403;DHT22;9837;48.888;8.998;2022-08-14T05:12:50;25.00;40.40
19403;DHT22;9837;48.888;8.998;2022-08-14T11:21:08;32.50;26.80
19403;DHT22;9837;48.888;8.998;2022-08-14T11:23:38;32.20;27.10
19403;DHT22;9837;48.888;8.998;2022-08-14T11:28:37;32.30;27.40
19403;DHT22;9837;48.888;8.998;2022-08-14T11:31:10;32.50;27.20
19403;DHT22;9837;48.888;8.998;2022-08-14T11:33:38;33.10;26.60
19403;DHT22;9837;48.888;8.998;2022-08-14T11:38:46;32.70;26.70
19403;DHT22;9837;48.888;8.998;2022-08-14T11:41:13;32.60;27.00
19403;DHT22;9837;48.888;8.998;2022-08-14T11:43:43;33.20;26.70
19403;DHT22;9837;48.888;8.998;2022-08-14T11:46:09;33.70;25.60
19403;DHT22;9837;48.888;8.998;2022-08-14T11:48:49;33.80;25.10
19403;DHT22;9837;48.888;8.998;2022-08-14T11:53:51;34.30;25.20
19403;DHT22;9837;48.888;8.998;2022-08-14T11:56:17;34.30;25.00
19403;DHT22;9837;48.888;8.998;2022-08-14T12:01:15;34.40;24.60
19403;DHT22;9837;48.888;8.998;2022-08-14T12:03:45;33.90;25.10
19403;DHT22;9837;48.888;8.998;2022-08-14T12:06:13;34.20;25.10
19403;DHT22;9837;48.888;8.998;2022-08-14T12:08:40;34.60;24.40
19403;DHT22;9837;48.888;8.998;2022-08-14T12:11:08;34.40;24.10
19403;DHT22;9837;48.888;8.998;2022-08-14T12:13:34;33.90;23.70
19403;DHT22;9837;48.888;8.998;2022-08-14T12:16:05;33.80;24.10
19403;DHT22;9837;48.888;8.998;2022-08-14T12:18:37;33.70;24.50
19403;DHT22;9837;48.888;8.998;2022-08-14T12:21:18;34.20;23.70
19403;DHT22;9837;48.888;8.998;2022-08-14T12:23:46;33.90;24.20
19403;DHT22;9837;48.888;8.998;2022-08-14T12:26:16;34.00;23.80
19403;DHT22;9837;48.888;8.998;2022-08-14T12:28:48;34.40;23.90
19403;DHT22;9837;48.888;8.998;2022-08-14T12:31:16;34.40;23.70
19403;DHT22;9837;48.888;8.998;2022-08-14T12:33:57;34.30;24.30
19403;DHT22;9837;48.888;8.998;2022-08-14T12:36:25;34.40;24.00
19403;DHT22;9837;48.888;8.998;2022-08-14T12:41:24;34.70;23.60
19403;DHT22;9837;48.888;8.998;2022-08-14T12:44:00;34.80;23.50
19403;DHT22;9837;48.888;8.998;2022-08-14T12:46:38;35.10;22.10
19403;DHT22;9837;48.888;8.998;2022-08-14T12:49:16;34.90;22.20
19403;DHT22;9837;48.888;8.998;2022-08-14T12:51:54;34.50;22.80
19403;DHT22;9837;48.888;8.998;2022-08-14T12:54:20;34.70;23.20
19403;DHT22;9837;48.888;8.998;2022-08-14T12:56:46;34.50;23.30
19403;DHT22;9837;48.888;8.998;2022-08-14T13:01:40;34.60;23.40
19403;DHT22;9837;48.888;8.998;2022-08-14T13:04:13;34.70;23.00
19403;DHT22;9837;48.888;8.998;2022-08-14T13:09:07;34.90;23.20
19403;DHT22;9837;48.888;8.998;2022-08-14T13:11:51;35.40;22.90
19403;DHT22;9837;48.888;8.998;2022-08-14T13:14:22;35.30;22.30
19403;DHT22;9837;48.888;8.998;2022-08-14T13:19:17;34.50;23.00
19403;DHT22;9837;48.888;8.998;2022-08-14T13:21:43;34.70;22.80
19403;DHT22;9837;48.888;8.998;2022-08-14T13:24:12;35.00;22.30
19403;DHT22;9837;48.888;8.998;2022-08-14T13:26:49;35.70;22.80
19403;DHT22;9837;48.888;8.998;2022-08-14T13:29:21;35.70;22.00
19403;DHT22;9837;48.888;8.998;2022-08-14T13:31:52;35.90;21.80
19403;DHT22;9837;48.888;8.998;2022-08-14T13:39:16;36.10;21.40
19403;DHT22;9837;48.888;8.998;2022-08-14T13:41:43;35.90;21.70
19403;DHT22;9837;48.888;8.998;2022-08-14T13:44:10;35.50;22.00
19403;DHT22;9837;48.888;8.998;2022-08-14T13:46:36;35.40;22.20
19403;DHT22;9837;48.888;8.998;2022-08-14T13:49:03;35.50;22.20
19403;DHT22;9837;48.888;8.998;2022-08-14T13:51:36;35.80;22.10
19403;DHT22;9837;48.888;8.998;2022-08-14T13:56:29;35.90;21.40
19403;DHT22;9837;48.888;8.998;2022-08-14T13:58:57;35.50;21.70
19403;DHT22;9837;48.888;8.998;2022-08-14T14:01:25;35.00;21.80
19403;DHT22;9837;48.888;8.998;2022-08-14T14:03:54;34.90;22.10
19403;DHT22;9837;48.888;8.998;2022-08-14T14:06:23;35.00;21.80
19403;DHT22;9837;48.888;8.998;2022-08-14T14:08:53;34.80;21.60
19403;DHT22;9837;48.888;8.998;2022-08-14T14:11:19;34.90;21.60
19403;DHT22;9837;48.888;8.998;2022-08-14T14:13:49;35.30;21.80
19403;DHT22;9837;48.888;8.998;2022-08-14T14:18:51;35.60;21.10
19403;DHT22;9837;48.888;8.998;2022-08-14T14:21:21;35.50;21.00
19403;DHT22;9837;48.888;8.998;2022-08-14T14:23:48;35.80;20.80
19403;DHT22;9837;48.888;8.998;2022-08-14T14:26:16;36.30;20.40
19403;DHT22;9837;48.888;8.998;2022-08-14T14:28:43;36.10;20.10
19403;DHT22;9837;48.888;8.998;2022-08-14T14:31:26;35.60;20.80
19403;DHT22;9837;48.888;8.998;2022-08-14T14:33:59;35.10;20.70
19403;DHT22;9837;48.888;8.998;2022-08-14T14:36:27;34.50;21.30
19403;DHT22;9837;48.888;8.998;2022-08-14T14:38:59;34.60;21.20
19403;DHT22;9837;48.888;8.998;2022-08-14T14:41:27;35.10;21.00
19403;DHT22;9837;48.888;8.998;2022-08-14T14:43:54;35.00;20.90
19403;DHT22;9837;48.888;8.998;2022-08-14T14:48:48;34.70;21.40
19403;DHT22;9837;48.888;8.998;2022-08-14T14:51:16;34.60;21.50
19403;DHT22;9837;48.888;8.998;2022-08-14T14:53:43;34.90;21.40
19403;DHT22;9837;48.888;8.998;2022-08-14T14:56:09;34.90;21.10
19403;DHT22;9837;48.888;8.998;2022-08-14T14:58:40;34.90;21.30
19403;DHT22;9837;48.888;8.998;2022-08-14T15:01:07;34.90;21.10
19403;DHT22;9837;48.888;8.998;2022-08-14T15:03:35;34.40;21.30
19403;DHT22;9837;48.888;8.998;2022-08-14T15:06:03;34.30;21.40
19403;DHT22;9837;48.888;8.998;2022-08-14T15:08:30;34.40;21.20
19403;DHT22;9837;48.888;8.998;2022-08-14T15:10:57;34.80;21.00
19403;DHT22;9837;48.888;8.998;2022-08-14T15:13:24;35.30;21.00
19403;DHT22;9837;48.888;8.998;2022-08-14T15:15:52;35.60;20.10
19403;DHT22;9837;48.888;8.998;2022-08-14T15:18:21;35.60;20.00
19403;DHT22;9837;48.888;8.998;2022-08-14T15:20:50;35.40;20.20
19403;DHT22;9837;48.888;8.998;2022-08-14T15:23:19;35.50;20.40
19403;DHT22;9837;48.888;8.998;2022-08-14T15:25:45;35.60;20.30
19403;DHT22;9837;48.888;8.998;2022-08-14T15:28:11;35.60;20.20
19403;DHT22;9837;48.888;8.998;2022-08-14T15:30:44;35.60;20.30
19403;DHT22;9837;48.888;8.998;2022-08-14T15:33:11;35.50;20.50
19403;DHT22;9837;48.888;8.998;2022-08-14T15:38:03;35.10;20.40
19403;DHT22;9837;48.888;8.998;2022-08-14T15:40:37;35.00;20.50
19403;DHT22;9837;48.888;8.998;2022-08-14T15:43:10;34.90;20.60
19403;DHT22;9837;48.888;8.998;2022-08-14T15:45:40;35.20;20.50
19403;DHT22;9837;48.888;8.998;2022-08-14T15:48:07;35.30;20.10
19403;DHT22;9837;48.888;8.998;2022-08-14T15:50:33;35.10;20.40
19403;DHT22;9837;48.888;8.998;2022-08-14T15:52:58;35.10;20.30
19403;DHT22;9837;48.888;8.998;2022-08-14T15:55:24;35.00;20.70
19403;DHT22;9837;48.888;8.998;2022-08-14T15:57:50;35.30;20.90
19403;DHT22;9837;48.888;8.998;2022-08-14T16:03:02;35.90;20.50
19403;DHT22;9837;48.888;8.998;2022-08-14T16:05:27;35.90;20.10
19403;DHT22;9837;48.888;8.998;2022-08-14T16:07:54;35.70;20.40
19403;DHT22;9837;48.888;8.998;2022-08-14T16:10:21;35.60;20.40
19403;DHT22;9837;48.888;8.998;2022-08-14T16:15:16;35.50;20.00
19403;DHT22;9837;48.888;8.998;2022-08-14T16:17:43;35.50;20.20
19403;DHT22;9837;48.888;8.998;2022-08-14T16:20:10;35.50;20.10
19403;DHT22;9837;48.888;8.998;2022-08-14T16:22:36;35.60;20.40
19403;DHT22;9837;48.888;8.998;2022-08-14T16:25:03;35.60;20.30
19403;DHT22;9837;48.888;8.998;2022-08-14T16:27:30;35.60;20.10
19403;DHT22;9837;48.888;8.998;2022-08-14T16:29:57;35.50;20.20
19403;DHT22;9837;48.888;8.998;2022-08-14T16:32:22;35.50;20.10
19403;DHT22;9837;48.888;8.998;2022-08-14T16:34:49;35.50;20.50
19403;DHT22;9837;48.888;8.998;2022-08-14T16:37:15;35.60;20.50
19403;DHT22;9837;48.888;8.998;2022-08-14T16:39:43;35.70;20.40
19403;DHT22;9837;48.888;8.998;2022-08-14T16:42:10;35.80;20.40
19403;DHT22;9837;48.888;8.998;2022-08-14T16:44:37;35.70;20.40
19403;DHT22;9837;48.888;8.998;2022-08-14T16:47:13;35.70;20.10
19403;DHT22;9837;48.888;8.998;2022-08-14T16:49:41;35.80;20.00
19403;DHT22;9837;48.888;8.998;2022-08-14T16:52:08;35.80;20.80
19403;DHT22;9837;48.888;8.998;2022-08-14T16:54:36;35.90;21.00
19403;DHT22;9837;48.888;8.998;2022-08-14T16:57:17;35.90;20.80
19403;DHT22;9837;48.888;8.998;2022-08-14T16:59:45;35.90;20.90
19403;DHT22;9837;48.888;8.998;2022-08-14T17:02:13;35.90;20.60
19403;DHT22;9837;48.888;8.998;2022-08-14T17:04:38;35.90;20.50
19403;DHT22;9837;48.888;8.998;2022-08-14T17:07:08;35.80;20.40
19403;DHT22;9837;48.888;8.998;2022-08-14T17:09:47;35.70;20.00
19403;DHT22;9837;48.888;8.998;2022-08-14T17:12:39;35.30;20.30
19403;DHT22;9837;48.888;8.998;2022-08-14T17:15:08;35.20;20.80
19403;DHT22;9837;48.888;8.998;2022-08-14T17:20:12;35.10;20.80
19403;DHT22;9837;48.888;8.998;2022-08-14T17:25:29;34.80;21.50
19403;DHT22;9837;48.888;8.998;2022-08-14T17:28:14;34.70;21.50
19403;DHT22;9837;48.888;8.998;2022-08-14T17:30:55;34.50;21.80
19403;DHT22;9837;48.888;8.998;2022-08-14T17:36:10;34.40;22.20
19403;DHT22;9837;48.888;8.998;2022-08-14T17:38:36;34.40;22.10
19403;DHT22;9837;48.888;8.998;2022-08-14T17:46:44;34.10;22.40
19403;DHT22;9837;48.888;8.998;2022-08-14T17:49:17;34.00;22.60
19403;DHT22;9837;48.888;8.998;2022-08-14T18:07:16;33.50;24.00
19403;DHT22;9837;48.888;8.998;2022-08-14T18:09:48;33.50;24.20
